Grosse Pointe Shores, Michigan
Current Conditions -  °F | °C
As of 1:03 PM on Sunday 25 Jan 2015 (Local Time) from KDET Reporting Station
Overcast Overcast  
Wind Chill: 13°   Ceiling: 5000
Heat Index: 25°   Visibility: 10mi
Dew Point: 15°   Wind: 15mph
Humidity: 66%   Direction: 70°ENE
Pressure: 29.91"   Gusts: NA
Location:  42.4243°N, 82.8975°W
Report Text: KDET 251803Z 07013KT 10SM FEW023 BKN050 OVC060 M04/M09 A2991 RMK AO2 T10391094
Loading
Personal Weather Stations






























Interactive Weather Map New forecast layout! Learn more

10-Day Weather Forecast

Advertisements
Track Severe Weather on mobile